LSGGLSGC

Guest
Details From LSGG - Geneva
To LSGC - Les Eplatures
Flight Number -
Tags generated
Created
Modified
Stats Distance 58 nm / 108 km
Max Altitude 4,100 ft / 1,250 m
Waypoints 3
Social Downloads 0
Likes 0
Share VATSIM

Download

Looking for another format? Having issues loading an existing format? Contact us
Advertisement - Login to hide

Notes

Basic altitude profile: - Ascent Rate: 2500ft/min - Ascent Speed: 250kts - Cruise Altitude: 35000ft - Cruise Speed: 420kts - Descent Rate: 1500ft/min - Descent Speed: 250kts Options: - Use NATs: yes - Use PACOTS: yes - Use low airways: yes - Use high airways: yes

Route

LSGG GLA LSGC

ID Type Via Altitude Latitude Longitude Leg Dist Tot Dist Heading (true) Name
O LSGG APT - 0 ft / 0 m 46.23775˚ 6.10617˚ - 0 nm - Geneva
GLA NDB - 4,100 ft / 1,250 m 46.40869˚ 6.24425˚ 11 nm 11 nm 29° / 29° GLAND NDB
O LSGC APT - 0 ft / 0 m 47.08415˚ 6.79350˚ 46 nm 58 nm 29° / 29° Les Eplatures

Altitude Profile

Advertisement - Login to hide

LSGG

Details ICAO LSGG (GVA)
Name Geneva
Region Switzerland
Timezone Europe/Zurich (UTC+1.0)
Stats Elevation 1,410 ft / 430 m (AMSL)
Location 46.237755° 6.106173°
Runways 2
Magnetic Variation 1.737° E

METAR

LSGG 120920Z VRB02KT 9999 -SHRA FEW005 BKN008 BKN070 02/02 Q1012 NOSIG

Decode

TAF

TAF LSGG 120825Z 1209/1315 23005KT 9999 FEW010 BKN040 TX07/1215Z TNM04/1306Z TX04/1315Z PROB30 TEMPO 1209/1211 4000 SHRASN BKN010 BECMG 1218/1221 CAVOK BECMG 1310/1312 23015KT 9999 BKN090

Decode

Departure Runways

ID Width Length Bearing (true) Bearing (mag) Surface Threshold Offset Overrun Length
05 180 ft / 55 m 12,796 ft / 3,900 m 45.43° 43.69° Concrete 1,079 ft / 329 m 66 ft / 20 m
05L 98 ft / 30 m 2,701 ft / 823 m 45.44° 43.70° Grass 610 ft / 186 m 0 ft / 0 m
23 180 ft / 55 m 12,796 ft / 3,900 m 225.45° 223.71° Concrete 0 ft / 0 m 66 ft / 20 m
23R 98 ft / 30 m 2,701 ft / 823 m 225.45° 223.71° Grass 997 ft / 304 m 0 ft / 0 m

LSGC

Details ICAO LSGC
Name Les Eplatures
Region Switzerland
Timezone Europe/Zurich (UTC+1.0)
Stats Elevation 3,368 ft / 1,027 m (AMSL)
Location 47.084154° 6.793497°
Runways 1
Magnetic Variation 1.899° E

METAR

LSGC 120920Z AUTO 25007KT 9999 -SN BKN/// M02/M03 Q1009

Decode

TAF

Not found

Destination Runways

ID Width Length Bearing (true) Bearing (mag) Surface Threshold Offset Overrun Length
06 95 ft / 29 m 3,722 ft / 1,135 m 53.96° 52.06° Asphalt 230 ft / 70 m 0 ft / 0 m
24 95 ft / 29 m 3,722 ft / 1,135 m 233.97° 232.07° Asphalt 328 ft / 100 m 0 ft / 0 m

Approach Navaids

Runway Type Ident Frequency Range Bearing (true) Bearing (mag) Slope Elevation
24 Localiser ICF 108.15 MHz 18 nm / 33 km 233.97° 232.07° - 3,376 ft / 1,029 m (AMSL)
24 Glidescope ICF 108.15 MHz 10 nm / 19 km 233.97° 232.07° 3.50° 3,371 ft / 1,027 m (AMSL)

Popular Alternatives